Meteógrafos Informações Meteorológicas em tempo real
Aeroporto de Carolina
15-12-2019 22:56

Temperatura atual: 27 graus 80 F    Umidade relativa: 83 %
Velocidade do vento: 03 nós 5 Km/h    Direção: 320 graus NW
Ajuste do altímetro ..: 1010 HPA
Visibilidade: Ótima    Tempo presente: Céu Limpo

Observação
Data Hora BRTTempo°CUmidadePressãoVentoVisib.
15/12 - 22:56   Céu Limpo 27° 83% 1010 Noroeste/5 km/h OK
15/12 - 21:56   Céu Limpo 28° 83% 1009 Norte-noroeste/5 km/h OK
15/12 - 20:56   Céu Limpo 29° 79% 1009 Noroeste/5 km/h OK
15/12 - 19:56   Céu Limpo 30° 74% 1008 Norte-noroeste/3 km/h OK
15/12 - 18:56   Céu Limpo 33° 59% 1008 /1 km/h OK
15/12 - 17:55   Céu Limpo 35° 53% 1008 Noroeste/5 km/h CAVO
15/12 - 16:56   Céu Limpo 35° 47% 1007 Este-sudeste/9 km/h CAVO
15/12 - 15:56   Céu Limpo 35° 47% 1008 /5 km/h OK
15/12 - 14:56   Não Disponível 34° 52% 1009 Norte-nordeste/10 km/h 9999
15/12 - 13:56   Céu Limpo 34° 52% 1010 /5 km/h OK
15/12 - 12:56   Parcialmente Nublado 32° 62% 1010 Oeste-noroeste/7 km/h 9999
15/12 - 11:56   Céu Limpo 32° 62% 1011 /5 km/h OK
15/12 - 10:56   Não Disponível 30° 74% 1012 Oeste-noroeste/7 km/h 9999
15/12 - 09:56   Não Disponível 28° 79% 1012 Este-sudeste/7 km/h 9999
15/12 - 08:56   Céu Limpo 27° 83% 1012 Sudeste/5 km/h CAVO
15/12 - 07:56   Céu Limpo 25° 94% 1011 Leste/5 km/h OK
15/12 - 06:56   Céu Limpo 23° 100% 1011 Este-sudeste/5 km/h OK
15/12 - 05:56   Céu Limpo 23° 100% 1010 Leste/3 km/h OK
15/12 - 04:56   Céu Limpo 24° 94% 1009 Norte/5 km/h OK
15/12 - 03:56   Céu Limpo 24° 94% 1009 Nordeste/3 km/h OK
15/12 - 02:56   Céu Limpo 24° 100% 1009 Leste/3 km/h OK
15/12 - 01:56   Céu Limpo 25° 94% 1009 Leste/5 km/h OK
15/12 - 00:56   Céu Limpo 25° 94% 1010 /3 km/h OK
14/12 - 23:56   Céu Limpo 26° 94% 1010 /1 km/h OK

Termo de Uso  |   Links Úteis  |   Imprensa  |  Anuncie  |  Fale Conosco  |  Versão Celular  |   Política de Privacidade

Apolo11.com - Todos os direitos reservados - 2000 - 2019

"Existem velas que iluminam tudo, menos o próprio candelabro" - Hebbel